createdAt,value
2022-12-19T00:01:59.298Z,99454.94
2022-12-19T00:04:28.857Z,99461.00
2022-12-19T00:06:59.706Z,99455.75
2022-12-19T00:09:28.424Z,99449.66
2022-12-19T00:11:56.614Z,99438.53
2022-12-19T00:14:24.845Z,99454.19
2022-12-19T00:16:52.997Z,99444.66
2022-12-19T00:19:21.715Z,99434.13
2022-12-19T00:21:51.173Z,99442.88
2022-12-19T00:24:21.372Z,99451.59
2022-12-19T00:26:50.207Z,99451.53
2022-12-19T00:29:18.387Z,99461.06
2022-12-19T00:31:46.911Z,99442.75
2022-12-19T00:34:16.438Z,99461.88
2022-12-19T00:36:44.902Z,99455.81
2022-12-19T00:39:32.498Z,99456.56
2022-12-19T00:42:00.672Z,99474.94
2022-12-19T00:44:28.827Z,99463.69
2022-12-19T00:46:56.893Z,99462.78
2022-12-19T00:49:25.858Z,99459.41
2022-12-19T00:51:54.680Z,99461.00
2022-12-19T00:54:22.905Z,99469.88
2022-12-19T00:56:53.729Z,99465.56
2022-12-19T00:59:26.688Z,99467.25
2022-12-19T01:01:57.892Z,99460.19
2022-12-19T01:04:28.509Z,99444.78
2022-12-19T01:06:58.018Z,99435.13
2022-12-19T01:09:33.451Z,99449.16
2022-12-19T01:12:20.489Z,99412.50
2022-12-19T01:14:54.658Z,99419.41
2022-12-19T01:17:26.680Z,99449.03
2022-12-19T01:19:54.852Z,99448.19
2022-12-19T01:22:23.054Z,99442.19
2022-12-19T01:24:51.169Z,99434.44
2022-12-19T01:27:20.735Z,99429.16
2022-12-19T01:29:52.669Z,99445.69
2022-12-19T01:32:21.719Z,99447.28
2022-12-19T01:34:49.859Z,99440.28
2022-12-19T01:37:18.067Z,99456.06
2022-12-19T01:39:46.302Z,99433.47
2022-12-19T01:42:17.693Z,99422.06
2022-12-19T01:45:21.234Z,99386.28
2022-12-19T01:47:53.459Z,99407.94
2022-12-19T01:50:28.268Z,99387.91
2022-12-19T01:52:58.309Z,99389.56
2022-12-19T01:55:26.908Z,99363.44
2022-12-19T01:57:56.133Z,99371.31
2022-12-19T02:00:25.705Z,99386.22
2022-12-19T02:02:58.988Z,99370.53
2022-12-19T02:05:27.708Z,99381.13
2022-12-19T02:07:55.977Z,99393.34
2022-12-19T02:10:24.270Z,99388.22
2022-12-19T02:12:52.705Z,99385.53
2022-12-19T02:15:22.069Z,99381.19
2022-12-19T02:18:04.310Z,99376.84
2022-12-19T02:21:08.417Z,99404.59
2022-12-19T02:24:12.386Z,99400.25
2022-12-19T02:26:53.045Z,99393.38
2022-12-19T02:29:50.954Z,99371.63
2022-12-19T02:32:28.521Z,99371.69
2022-12-19T02:35:02.780Z,99371.69
2022-12-19T02:37:35.502Z,99372.63
2022-12-19T02:40:14.136Z,99356.81
2022-12-19T02:42:47.945Z,99384.75
2022-12-19T02:45:27.097Z,99377.81
2022-12-19T02:48:03.270Z,99355.91
2022-12-19T02:50:39.109Z,99376.84
2022-12-19T02:53:07.800Z,99370.91
2022-12-19T02:55:43.595Z,99357.78
2022-12-19T02:58:34.525Z,99351.72
2022-12-19T03:01:11.954Z,99360.38
2022-12-19T03:03:53.560Z,99359.50
2022-12-19T03:06:27.493Z,99356.88
2022-12-19T03:09:01.789Z,99365.50
2022-12-19T03:11:35.423Z,99356.91
2022-12-19T03:14:07.512Z,99345.59
2022-12-19T03:16:36.770Z,99351.63
2022-12-19T03:19:11.388Z,99350.00
2022-12-19T03:21:42.672Z,99330.72
2022-12-19T03:24:12.883Z,99340.25
2022-12-19T03:26:46.189Z,99342.69
2022-12-19T03:29:20.225Z,99353.00
2022-12-19T03:31:48.760Z,99348.72
2022-12-19T03:34:21.567Z,99338.06
2022-12-19T03:36:55.118Z,99362.44
2022-12-19T03:39:24.872Z,99347.59
2022-12-19T03:42:11.179Z,99351.06
2022-12-19T03:44:42.883Z,99342.41
2022-12-19T03:47:17.231Z,99346.00
2022-12-19T03:49:47.613Z,99346.06
2022-12-19T03:52:27.128Z,99339.09
2022-12-19T03:55:04.466Z,99338.38
2022-12-19T03:57:41.064Z,99325.34
2022-12-19T04:00:12.905Z,99334.16
2022-12-19T04:02:44.836Z,99339.16
2022-12-19T04:05:19.433Z,99351.28
2022-12-19T04:07:49.126Z,99349.59
2022-12-19T04:10:20.177Z,99346.19
2022-12-19T04:12:53.919Z,99346.22
2022-12-19T04:15:27.847Z,99327.03
2022-12-19T04:17:59.857Z,99337.53
2022-12-19T04:20:31.481Z,99335.91
2022-12-19T04:23:05.581Z,99341.97
2022-12-19T04:25:38.714Z,99346.31
2022-12-19T04:28:14.179Z,99325.28
2022-12-19T04:30:45.069Z,99326.25
2022-12-19T04:33:13.448Z,99326.38
2022-12-19T04:35:43.152Z,99311.50
2022-12-19T04:38:11.340Z,99318.41
2022-12-19T04:40:41.525Z,99324.69
2022-12-19T04:43:10.562Z,99313.28
2022-12-19T04:45:38.799Z,99321.19
2022-12-19T04:48:08.091Z,99326.34
2022-12-19T04:50:37.508Z,99318.56
2022-12-19T04:53:07.663Z,99312.53
2022-12-19T04:55:35.870Z,99309.00
2022-12-19T04:58:06.160Z,99316.03
2022-12-19T05:00:35.334Z,99311.75
2022-12-19T05:03:03.614Z,99305.72
2022-12-19T05:05:31.825Z,99313.50
2022-12-19T05:08:00.030Z,99312.63
2022-12-19T05:10:29.593Z,99309.13
2022-12-19T05:12:57.796Z,99313.44
2022-12-19T05:15:25.951Z,99312.63
2022-12-19T05:17:54.141Z,99317.81
2022-12-19T05:20:22.235Z,99298.66
2022-12-19T05:22:50.735Z,99315.19
2022-12-19T05:25:18.981Z,99319.44
2022-12-19T05:27:48.618Z,99301.13
2022-12-19T05:30:17.100Z,99320.31
2022-12-19T05:32:45.276Z,99304.56
2022-12-19T05:35:13.368Z,99307.09
2022-12-19T05:37:41.496Z,99305.44
2022-12-19T05:40:10.716Z,99305.69
2022-12-19T05:42:38.862Z,99301.22
2022-12-19T05:45:09.633Z,99281.16
2022-12-19T05:47:38.220Z,99297.69
2022-12-19T05:50:06.983Z,99301.13
2022-12-19T05:52:35.188Z,99290.66
2022-12-19T05:55:03.561Z,99309.84
2022-12-19T05:57:31.847Z,99313.28
2022-12-19T06:00:00.023Z,99319.31
2022-12-19T06:02:33.811Z,99312.41
2022-12-19T06:05:02.075Z,99330.63
2022-12-19T06:07:31.032Z,99324.50
2022-12-19T06:09:59.423Z,99321.91
2022-12-19T06:12:27.612Z,99327.09
2022-12-19T06:14:55.907Z,99329.63
2022-12-19T06:17:24.227Z,99342.69
2022-12-19T06:19:53.866Z,99330.59
2022-12-19T06:22:22.136Z,99338.47
2022-12-19T06:24:50.368Z,99318.38
2022-12-19T06:27:18.706Z,99327.28
2022-12-19T06:29:46.926Z,99325.44
2022-12-19T06:32:15.058Z,99323.56
2022-12-19T06:37:32.728Z,99324.53
2022-12-19T06:40:00.895Z,99323.69
2022-12-19T06:42:27.967Z,99331.47
2022-12-19T06:44:57.029Z,99320.06
2022-12-19T06:47:26.337Z,99320.91
2022-12-19T06:49:54.772Z,99327.75
2022-12-19T06:52:22.886Z,99336.44
2022-12-19T06:54:52.439Z,99321.69
2022-12-19T06:57:20.503Z,99337.53
2022-12-19T06:59:48.579Z,99337.53
2022-12-19T07:02:28.785Z,99330.63
2022-12-19T07:05:01.309Z,99341.09
2022-12-19T07:07:30.178Z,99333.44
2022-12-19T07:09:59.749Z,99337.75
2022-12-19T07:12:27.920Z,99331.72
2022-12-19T07:14:55.988Z,99333.56
2022-12-19T07:17:25.552Z,99342.31
2022-12-19T07:19:55.700Z,99330.88
2022-12-19T07:22:25.000Z,99337.19
2022-12-19T07:24:53.336Z,99344.25
2022-12-19T07:27:23.752Z,99339.03
2022-12-19T07:29:51.872Z,99347.72
2022-12-19T07:32:20.052Z,99346.06
2022-12-19T07:34:48.238Z,99359.13
2022-12-19T07:37:16.401Z,99354.00
2022-12-19T07:39:44.460Z,99353.25
2022-12-19T07:42:12.604Z,99361.22
2022-12-19T07:44:42.077Z,99356.06
2022-12-19T07:47:10.136Z,99357.09
2022-12-19T07:49:38.188Z,99361.56
2022-12-19T07:52:06.229Z,99356.47
2022-12-19T07:54:35.164Z,99366.19
2022-12-19T07:57:03.457Z,99365.31
2022-12-19T07:59:37.311Z,99366.41
2022-12-19T08:02:08.629Z,99348.03
2022-12-19T08:04:36.961Z,99362.00
2022-12-19T08:07:05.179Z,99361.88
2022-12-19T08:09:33.407Z,99364.59
2022-12-19T08:12:01.473Z,99372.34
2022-12-19T08:14:29.601Z,99365.34
2022-12-19T08:19:47.040Z,99370.53
2022-12-19T08:22:15.253Z,99352.97
2022-12-19T08:24:43.392Z,99359.91
2022-12-19T08:27:12.072Z,99359.16
2022-12-19T08:29:40.452Z,99368.72
2022-12-19T08:32:08.517Z,99373.19
2022-12-19T08:34:36.963Z,99367.13
2022-12-19T08:37:06.363Z,99372.44
2022-12-19T08:39:34.394Z,99375.97
2022-12-19T08:42:02.412Z,99372.44
2022-12-19T08:44:30.885Z,99360.38
2022-12-19T08:46:58.942Z,99369.97
2022-12-19T08:49:27.081Z,99358.63
2022-12-19T08:51:55.149Z,99365.59
2022-12-19T08:54:24.757Z,99374.28
2022-12-19T08:56:52.814Z,99375.06
2022-12-19T08:59:30.894Z,99371.53
2022-12-19T09:02:00.738Z,99371.56
2022-12-19T09:06:01.888Z,99370.75
2022-12-19T09:07:17.773Z,99380.28
2022-12-19T09:09:47.273Z,99381.16
2022-12-19T09:12:16.558Z,99380.28
2022-12-19T09:14:45.321Z,99377.75
2022-12-19T09:17:13.660Z,99376.09
2022-12-19T09:19:43.064Z,99369.13
2022-12-19T09:22:15.734Z,99369.19
2022-12-19T09:24:43.967Z,99376.97
2022-12-19T09:27:14.183Z,99367.47
2022-12-19T09:29:43.113Z,99374.59
2022-12-19T09:32:11.397Z,99364.13
2022-12-19T09:34:39.796Z,99363.34
2022-12-19T09:37:08.908Z,99367.66
2022-12-19T09:39:38.654Z,99354.59
2022-12-19T09:42:26.471Z,99369.34
2022-12-19T09:45:14.627Z,99370.25
2022-12-19T09:47:58.828Z,99362.38
2022-12-19T09:50:46.038Z,99374.59
2022-12-19T09:53:22.613Z,99371.91
2022-12-19T09:55:53.688Z,99357.13
2022-12-19T09:58:32.676Z,99352.75
2022-12-19T10:01:07.531Z,99347.59
2022-12-19T10:03:40.770Z,99357.97
2022-12-19T10:07:16.302Z,99347.66
2022-12-19T10:10:37.558Z,99338.06
2022-12-19T10:12:39.584Z,99340.66
2022-12-19T10:15:19.002Z,99334.53
2022-12-19T10:18:06.286Z,99337.00
2022-12-19T10:20:38.613Z,99344.66
2022-12-19T10:23:37.003Z,99347.06
2022-12-19T10:26:12.149Z,99333.19
2022-12-19T10:28:57.638Z,99339.19
2022-12-19T10:31:35.159Z,99331.22
2022-12-19T10:34:18.747Z,99330.38
2022-12-19T10:37:25.589Z,99323.53
2022-12-19T10:39:48.426Z,99327.81
2022-12-19T10:42:26.317Z,99324.41
2022-12-19T10:44:55.265Z,99318.34
2022-12-19T10:47:25.361Z,99315.81
2022-12-19T10:49:53.493Z,99302.06
2022-12-19T10:52:47.954Z,99300.31
2022-12-19T10:55:28.544Z,99308.03
2022-12-19T10:57:59.952Z,99308.91
2022-12-19T11:00:29.252Z,99302.84
2022-12-19T11:03:18.934Z,99303.63
2022-12-19T11:05:57.996Z,99305.34
2022-12-19T11:08:28.651Z,99296.56
2022-12-19T11:12:41.372Z,99296.41
2022-12-19T11:17:22.054Z,99299.06
2022-12-19T11:23:49.106Z,99293.63
2022-12-19T11:28:35.629Z,99297.88
2022-12-19T11:29:37.047Z,99290.03
2022-12-19T11:29:38.159Z,99280.56
2022-12-19T11:29:41.739Z,99284.94
2022-12-19T11:34:05.052Z,99283.19
2022-12-19T11:36:39.227Z,99280.69
2022-12-19T11:39:17.268Z,99288.47
2022-12-19T11:41:52.984Z,99290.31
2022-12-19T11:44:29.251Z,99278.16
2022-12-19T11:47:04.891Z,99281.56
2022-12-19T11:49:39.744Z,99281.53
2022-12-19T11:53:02.387Z,99284.94
2022-12-19T11:55:21.404Z,99277.81
2022-12-19T11:57:49.767Z,99273.50
2022-12-19T12:00:21.739Z,99266.59
2022-12-19T12:03:31.203Z,99262.22
2022-12-19T12:05:59.408Z,99263.06
2022-12-19T12:12:10.439Z,99257.13
2022-12-19T12:18:26.335Z,99264.06
2022-12-19T12:24:48.052Z,99256.97
2022-12-19T12:31:00.842Z,99261.34
2022-12-19T12:31:31.738Z,99261.41
2022-12-19T12:32:02.266Z,99251.78
2022-12-19T12:32:06.517Z,99258.81
2022-12-19T12:35:10.959Z,99246.59
2022-12-19T12:35:43.564Z,99238.06
2022-12-19T12:39:04.379Z,99239.66
2022-12-19T12:42:00.501Z,99228.44
2022-12-19T12:44:33.140Z,99223.97
2022-12-19T12:47:08.133Z,99216.19
2022-12-19T12:49:41.400Z,99213.63
2022-12-19T12:52:18.166Z,99216.25
2022-12-19T12:54:50.602Z,99216.31
2022-12-19T12:57:36.136Z,99224.19
2022-12-19T13:00:24.097Z,99214.59
2022-12-19T13:02:56.996Z,99215.50
2022-12-19T13:05:38.142Z,99219.03
2022-12-19T13:08:35.612Z,99212.06
2022-12-19T13:11:07.721Z,99209.41
2022-12-19T13:13:55.390Z,99214.63
2022-12-19T13:16:50.789Z,99201.69
2022-12-19T13:19:27.555Z,99205.13
2022-12-19T13:22:22.009Z,99199.88
2022-12-19T13:24:52.572Z,99199.81
2022-12-19T13:27:37.128Z,99205.03
2022-12-19T13:30:21.066Z,99214.59
2022-12-19T13:33:17.016Z,99211.19
2022-12-19T13:39:14.812Z,99206.88
2022-12-19T13:40:00.347Z,99198.22
2022-12-19T13:41:46.132Z,99199.97
2022-12-19T13:44:19.432Z,99205.94
2022-12-19T13:46:48.275Z,99193.03
2022-12-19T13:49:20.206Z,99197.28
2022-12-19T13:51:50.532Z,99198.91
2022-12-19T13:54:24.614Z,99192.84
2022-12-19T13:56:54.132Z,99185.03
2022-12-19T13:59:27.525Z,99187.66
2022-12-19T14:01:56.434Z,99179.84
2022-12-19T14:04:30.502Z,99172.81
2022-12-19T14:07:02.425Z,99185.97
2022-12-19T14:11:26.468Z,99181.56
2022-12-19T14:13:51.495Z,99178.91
2022-12-19T14:15:36.117Z,99185.88
2022-12-19T14:18:45.400Z,99183.22
2022-12-19T14:22:04.209Z,99184.97
2022-12-19T14:24:16.596Z,99177.13
2022-12-19T14:28:24.526Z,99177.97
2022-12-19T14:30:26.062Z,99185.75
2022-12-19T14:33:45.560Z,99189.22
2022-12-19T14:36:06.249Z,99191.88
2022-12-19T14:39:20.827Z,99180.50
2022-12-19T14:41:07.787Z,99183.97
2022-12-19T14:43:56.433Z,99171.81
2022-12-19T14:51:42.930Z,99190.09
2022-12-19T14:54:07.204Z,99175.44
2022-12-19T14:54:30.493Z,99179.78
2022-12-19T14:56:08.288Z,99178.03
2022-12-19T14:58:55.442Z,99177.13
2022-12-19T15:01:24.620Z,99176.22
2022-12-19T15:04:52.056Z,99178.75
2022-12-19T15:07:06.860Z,99165.78
2022-12-19T15:11:05.009Z,99164.03
2022-12-19T15:14:47.388Z,99164.97
2022-12-19T15:15:46.069Z,99158.84
2022-12-19T15:18:25.016Z,99157.94
2022-12-19T15:20:56.117Z,99147.50
2022-12-19T15:23:26.142Z,99146.63
2022-12-19T15:26:04.484Z,99150.91
2022-12-19T15:28:39.118Z,99155.25
2022-12-19T15:31:17.479Z,99157.78
2022-12-19T15:34:07.201Z,99159.53
2022-12-19T15:36:33.887Z,99147.44
2022-12-19T15:39:03.829Z,99144.00
2022-12-19T15:41:32.750Z,99145.69
2022-12-19T15:44:12.308Z,99149.94
2022-12-19T15:46:48.167Z,99154.34
2022-12-19T15:49:18.614Z,99150.84
2022-12-19T15:51:47.161Z,99161.19
2022-12-19T15:57:05.568Z,99162.00
2022-12-19T15:59:38.142Z,99162.09
2022-12-19T16:02:17.898Z,99156.81
2022-12-19T16:04:47.667Z,99152.53
2022-12-19T16:07:17.853Z,99162.94
2022-12-19T16:09:47.659Z,99155.09
2022-12-19T16:12:18.034Z,99162.97
2022-12-19T16:14:47.469Z,99161.28
2022-12-19T16:17:21.068Z,99161.19
2022-12-19T16:19:50.875Z,99155.94
2022-12-19T16:22:21.484Z,99142.06
2022-12-19T16:24:51.616Z,99147.19
2022-12-19T16:27:24.181Z,99143.78
2022-12-19T16:29:53.226Z,99136.81
2022-12-19T16:32:24.185Z,99135.13
2022-12-19T16:34:54.421Z,99142.13
2022-12-19T16:37:25.855Z,99143.81
2022-12-19T16:39:59.838Z,99142.00
2022-12-19T16:42:28.391Z,99148.03
2022-12-19T16:44:56.854Z,99142.84
2022-12-19T16:47:25.047Z,99141.94
2022-12-19T16:49:53.383Z,99150.56
2022-12-19T16:52:21.430Z,99129.66
2022-12-19T16:54:51.116Z,99135.84
2022-12-19T16:57:23.304Z,99141.13
2022-12-19T16:59:51.905Z,99142.72
2022-12-19T17:02:44.272Z,99133.19
2022-12-19T17:05:18.437Z,99133.28
2022-12-19T17:07:47.196Z,99130.75
2022-12-19T17:10:18.735Z,99116.81
2022-12-19T17:12:51.194Z,99128.13
2022-12-19T17:15:26.704Z,99110.72
2022-12-19T17:17:57.123Z,99129.84
2022-12-19T17:20:28.873Z,99119.31
2022-12-19T17:22:57.112Z,99121.16
2022-12-19T17:25:27.254Z,99123.75
2022-12-19T17:27:58.340Z,99125.41
2022-12-19T17:30:26.510Z,99131.50
2022-12-19T17:32:56.950Z,99131.59
2022-12-19T17:35:29.056Z,99116.03
2022-12-19T17:37:58.487Z,99134.28
2022-12-19T17:40:28.579Z,99136.94
2022-12-19T17:42:59.227Z,99144.69
2022-12-19T17:45:30.148Z,99110.78
2022-12-19T17:48:03.075Z,99138.63
2022-12-19T17:50:35.763Z,99128.06
2022-12-19T17:53:04.009Z,99141.19
2022-12-19T17:55:32.600Z,99137.66
2022-12-19T17:58:02.111Z,99140.31
2022-12-19T18:00:33.563Z,99136.88
2022-12-19T18:03:06.004Z,99139.50
2022-12-19T18:05:37.020Z,99141.31
2022-12-19T18:08:08.102Z,99142.22
2022-12-19T18:10:36.262Z,99137.94
2022-12-19T18:13:06.198Z,99139.69
2022-12-19T18:15:34.537Z,99144.97
2022-12-19T18:18:02.634Z,99138.88
2022-12-19T18:20:33.852Z,99134.34
2022-12-19T18:23:03.324Z,99127.38
2022-12-19T18:25:35.222Z,99130.03
2022-12-19T18:28:03.707Z,99133.53
2022-12-19T18:30:33.892Z,99130.09
2022-12-19T18:33:04.080Z,99124.84
2022-12-19T18:35:35.931Z,99133.53
2022-12-19T18:38:07.223Z,99134.41
2022-12-19T18:40:35.877Z,99137.03
2022-12-19T18:43:04.700Z,99140.50
2022-12-19T18:45:37.526Z,99137.09
2022-12-19T18:48:09.103Z,99137.09
2022-12-19T18:50:37.633Z,99135.34
2022-12-19T18:53:14.469Z,99122.28
2022-12-19T18:55:54.433Z,99120.63
2022-12-19T18:58:41.219Z,99119.00
2022-12-19T19:01:16.936Z,99114.63
2022-12-19T19:03:53.049Z,99125.13
2022-12-19T19:06:23.360Z,99113.88
2022-12-19T19:08:52.213Z,99116.47
2022-12-19T19:11:32.119Z,99119.06
2022-12-19T19:14:00.838Z,99109.50
2022-12-19T19:16:31.206Z,99116.44
2022-12-19T19:19:01.090Z,99112.94
2022-12-19T19:21:33.646Z,99115.50
2022-12-19T19:24:07.141Z,99107.72
2022-12-19T19:26:35.960Z,99097.31
2022-12-19T19:29:05.536Z,99107.75
2022-12-19T19:31:40.033Z,99103.41
2022-12-19T19:34:12.705Z,99105.22
2022-12-19T19:36:45.635Z,99111.25
2022-12-19T19:39:14.991Z,99106.13
2022-12-19T19:41:43.482Z,99111.28
2022-12-19T19:44:12.008Z,99104.31
2022-12-19T19:46:41.961Z,99104.38
2022-12-19T19:49:10.836Z,99108.75
2022-12-19T19:51:39.533Z,99098.34
2022-12-19T19:54:08.491Z,99094.84
2022-12-19T19:56:37.070Z,99100.06
2022-12-19T19:59:05.536Z,99093.97
2022-12-19T20:01:34.616Z,99099.16
2022-12-19T20:04:04.908Z,99087.03
2022-12-19T20:06:33.529Z,99088.72
2022-12-19T20:09:02.495Z,99098.22
2022-12-19T20:11:32.546Z,99100.00
2022-12-19T20:14:01.097Z,99063.63
2022-12-19T20:16:29.466Z,99087.91
2022-12-19T20:18:57.699Z,99087.06
2022-12-19T20:21:28.261Z,99078.31
2022-12-19T20:23:59.351Z,99085.28
2022-12-19T20:26:28.022Z,99078.31
2022-12-19T20:28:56.990Z,99081.84
2022-12-19T20:31:25.537Z,99076.72
2022-12-19T20:33:57.295Z,99066.34
2022-12-19T20:36:32.484Z,99062.84
2022-12-19T20:39:02.034Z,99055.84
2022-12-19T20:41:30.523Z,99040.13
2022-12-19T20:43:59.155Z,99051.44
2022-12-19T20:46:28.082Z,99044.47
2022-12-19T20:48:57.979Z,99053.19
2022-12-19T20:51:27.938Z,99052.31
2022-12-19T20:53:56.430Z,99066.16
2022-12-19T20:56:26.110Z,99059.19
2022-12-19T20:58:54.557Z,99071.38
2022-12-19T21:01:24.762Z,99051.44
2022-12-19T21:03:54.030Z,99067.13
2022-12-19T21:06:25.499Z,99048.91
2022-12-19T21:08:55.593Z,99052.34
2022-12-19T21:11:24.601Z,99056.63
2022-12-19T21:13:52.829Z,99048.81
2022-12-19T21:16:23.811Z,99040.97
2022-12-19T21:18:52.454Z,99034.81
2022-12-19T21:21:23.004Z,99034.03
2022-12-19T21:23:51.760Z,99024.47
2022-12-19T21:26:22.108Z,99040.13
2022-12-19T21:28:50.769Z,99028.78
2022-12-19T21:31:22.002Z,99033.13
2022-12-19T21:33:51.463Z,99043.53
2022-12-19T21:36:22.444Z,99040.06
2022-12-19T21:38:53.426Z,99039.97
2022-12-19T21:41:23.022Z,99047.81
2022-12-19T21:43:53.689Z,99036.50
2022-12-19T21:46:23.958Z,99018.25
2022-12-19T21:48:53.800Z,99026.94
2022-12-19T21:51:23.912Z,99039.94
2022-12-19T21:53:56.049Z,99037.38
2022-12-19T21:56:27.803Z,99035.72
2022-12-19T21:58:57.663Z,99036.59
2022-12-19T22:01:26.753Z,99032.28
2022-12-19T22:03:59.788Z,99027.94
2022-12-19T22:06:30.604Z,99019.28
2022-12-19T22:08:59.202Z,99017.56
2022-12-19T22:11:30.205Z,99007.13
2022-12-19T22:14:00.411Z,99009.72
2022-12-19T22:16:28.980Z,99021.16
2022-12-19T22:18:57.432Z,99009.88
2022-12-19T22:21:26.114Z,99014.22
2022-12-19T22:23:57.140Z,99008.22
2022-12-19T22:26:26.010Z,99006.44
2022-12-19T22:28:56.693Z,98998.56
2022-12-19T22:31:26.286Z,99001.13
2022-12-19T22:33:57.135Z,99010.69
2022-12-19T22:36:28.776Z,99003.75
2022-12-19T22:38:58.397Z,98988.13
2022-12-19T22:41:27.086Z,98976.84
2022-12-19T22:43:57.160Z,98987.16
2022-12-19T22:46:27.490Z,98981.97
2022-12-19T22:48:57.749Z,98989.81
2022-12-19T22:51:27.357Z,98990.75
2022-12-19T22:53:56.092Z,98992.41
2022-12-19T22:56:26.517Z,98985.50
2022-12-19T22:58:57.744Z,98976.03
2022-12-19T23:01:27.666Z,98975.19
2022-12-19T23:03:57.739Z,98959.50
2022-12-19T23:06:27.766Z,98976.88
2022-12-19T23:08:56.446Z,98969.91
2022-12-19T23:11:27.353Z,98967.34
2022-12-19T23:13:55.463Z,98963.91
2022-12-19T23:16:24.998Z,98958.63
2022-12-19T23:18:53.167Z,98956.81
2022-12-19T23:21:25.192Z,98960.28
2022-12-19T23:23:55.538Z,98956.78
2022-12-19T23:26:25.897Z,98941.19
2022-12-19T23:28:56.300Z,98939.44
2022-12-19T23:31:27.337Z,98945.53
2022-12-19T23:33:55.979Z,98945.50
2022-12-19T23:37:00.487Z,98949.81
2022-12-19T23:39:13.115Z,98942.91
2022-12-19T23:41:41.921Z,98937.72
2022-12-19T23:44:10.865Z,98935.97
2022-12-19T23:46:41.211Z,98931.69
2022-12-19T23:49:09.483Z,98932.56
2022-12-19T23:51:37.777Z,98924.75
2022-12-19T23:54:06.043Z,98936.00
2022-12-19T23:56:34.532Z,98925.53
2022-12-19T23:59:03.979Z,98924.59
